Time;durP1;ratioP1;P1;durP2;ratioP2;P2;SDS_P1;SDS_P2;PMS_P1;PMS_P2;Temp;Humidity;BMP_temperature;BMP_pressure;BME280_temperature;BME280_humidity;BME280_pressure;Samples;Min_cycle;Max_cycle;Signal;HPM_P1;HPM_P2
2022/10/30 00:02:19;;;;;;;13.40;5.30;;;13.10;99.90;;;;;;1913906;74;21423;-74
2022/10/30 00:04:46;;;;;;;12.40;5.35;;;13.10;99.90;;;;;;1913755;74;21156;-74
2022/10/30 00:07:14;;;;;;;10.45;5.42;;;13.10;99.90;;;;;;1916449;73;21074;-73
2022/10/30 00:09:41;;;;;;;12.88;4.85;;;13.10;99.90;;;;;;1908943;73;21156;-74
2022/10/30 00:12:08;;;;;;;13.10;5.28;;;13.10;99.90;;;;;;1910724;73;21144;-74
2022/10/30 00:14:37;;;;;;;13.22;5.20;;;13.00;99.90;;;;;;1909622;73;21207;-74
2022/10/30 00:17:04;;;;;;;9.68;4.05;;;13.00;99.90;;;;;;1914970;73;21051;-74
2022/10/30 00:19:31;;;;;;;10.00;4.95;;;13.00;99.90;;;;;;1916043;73;21140;-74
2022/10/30 00:22:01;;;;;;;11.97;4.83;;;12.90;99.90;;;;;;1918490;74;21085;-74
2022/10/30 00:24:28;;;;;;;9.40;4.37;;;12.90;99.90;;;;;;1905181;74;21043;-75
2022/10/30 00:26:55;;;;;;;8.85;5.30;;;12.90;99.90;;;;;;1911995;74;21116;-74
2022/10/30 00:29:25;;;;;;;12.28;5.15;;;12.90;99.90;;;;;;1903316;74;21151;-74
2022/10/30 00:31:52;;;;;;;12.10;5.28;;;12.90;99.90;;;;;;1917109;73;21112;-74
2022/10/30 00:34:20;;;;;;;18.62;5.20;;;12.80;99.90;;;;;;1913479;73;21486;-74
2022/10/30 00:36:47;;;;;;;12.53;4.90;;;12.80;99.90;;;;;;1914856;73;21273;-74
2022/10/30 00:39:14;;;;;;;17.00;5.05;;;12.90;99.90;;;;;;1912178;75;21205;-74
2022/10/30 00:41:42;;;;;;;13.80;5.33;;;12.90;99.90;;;;;;1907769;73;21098;-74
2022/10/30 00:44:44;;;;;;;14.33;4.37;;;12.90;99.90;;;;;;1912375;73;21152;-74
2022/10/30 00:47:14;;;;;;;15.35;5.00;;;12.90;99.90;;;;;;1910021;73;21078;-74
2022/10/30 00:49:45;;;;;;;14.15;5.15;;;12.90;99.90;;;;;;1914746;74;21396;-74
2022/10/30 00:52:11;;;;;;;;;;;12.80;99.90;;;;;;1917189;74;21085;-74
2022/10/30 00:54:39;;;;;;;18.50;5.40;;;12.80;99.90;;;;;;1908961;74;20126;-74
2022/10/30 00:57:06;;;;;;;13.83;5.50;;;12.80;99.90;;;;;;1910335;74;21052;-74
2022/10/30 00:59:34;;;;;;;10.90;4.80;;;12.70;99.90;;;;;;1911940;74;21157;-74
2022/10/30 01:02:02;;;;;;;14.70;5.40;;;12.70;99.90;;;;;;1914306;74;21090;-74
2022/10/30 01:04:30;;;;;;;16.07;4.92;;;12.70;99.90;;;;;;1911754;74;21152;-75
2022/10/30 01:06:57;;;;;;;12.90;4.72;;;12.80;99.90;;;;;;1911150;73;21121;-75
2022/10/30 01:09:25;;;;;;;9.98;4.80;;;12.70;99.90;;;;;;1909177;73;21540;-75
2022/10/30 01:11:52;;;;;;;11.28;4.55;;;12.60;99.90;;;;;;1914531;74;21159;-74
2022/10/30 01:14:19;;;;;;;14.28;4.97;;;12.60;99.90;;;;;;1917316;73;21085;-73
2022/10/30 01:16:59;;;;;;;24.85;5.30;;;12.70;99.90;;;;;;1907399;74;21117;-75
2022/10/30 01:19:47;;;;;;;9.00;4.65;;;12.70;99.90;;;;;;1908995;73;21462;-74
2022/10/30 01:22:24;;;;;;;13.30;4.58;;;12.70;99.90;;;;;;1909426;74;21074;-74
2022/10/30 01:25:11;;;;;;;14.93;4.97;;;12.70;99.90;;;;;;1910076;73;21140;-74
2022/10/30 01:27:44;;;;;;;21.80;6.12;;;12.70;99.90;;;;;;1908041;74;21143;-73
2022/10/30 01:30:26;;;;;;;20.95;4.92;;;12.60;99.90;;;;;;1895913;74;21160;-74
2022/10/30 01:32:57;;;;;;;17.85;4.90;;;12.70;99.90;;;;;;1912500;74;21536;-73
2022/10/30 01:35:36;;;;;;;11.55;4.55;;;12.60;99.90;;;;;;1907185;74;21036;-73
2022/10/30 01:38:25;;;;;;;10.03;4.62;;;12.60;99.90;;;;;;1914554;74;21090;-74
2022/10/30 01:40:52;;;;;;;13.60;5.28;;;12.60;99.90;;;;;;1914727;74;21094;-73
2022/10/30 01:43:20;;;;;;;12.88;4.72;;;12.60;99.90;;;;;;1916070;74;21086;-74
2022/10/30 01:45:59;;;;;;;11.22;5.12;;;12.60;99.90;;;;;;1912490;74;21078;-74
2022/10/30 01:48:54;;;;;;;9.70;4.07;;;12.60;99.90;;;;;;1908960;73;21047;-74
2022/10/30 01:51:44;;;;;;;14.60;5.05;;;12.50;99.90;;;;;;1901142;74;21214;-75
2022/10/30 01:54:36;;;;;;;7.85;4.55;;;12.50;99.90;;;;;;1912787;74;21132;-76
2022/10/30 01:57:32;;;;;;;10.35;4.22;;;12.50;99.90;;;;;;1907532;73;21082;-73
2022/10/30 02:00:13;;;;;;;10.53;4.53;;;12.50;99.90;;;;;;1908727;74;21180;-73
2022/10/30 02:02:41;;;;;;;9.65;4.28;;;12.40;99.90;;;;;;1908013;74;21082;-74
2022/10/30 02:05:09;;;;;;;12.95;4.92;;;12.50;99.90;;;;;;1914651;74;21098;-74
2022/10/30 02:07:36;;;;;;;9.18;4.75;;;12.40;99.90;;;;;;1910518;74;21439;-74
2022/10/30 02:10:04;;;;;;;14.73;5.10;;;12.40;99.90;;;;;;1911225;74;21083;-75
2022/10/30 02:12:31;;;;;;;12.47;4.55;;;12.40;99.90;;;;;;1913426;74;21451;-74
2022/10/30 02:14:59;;;;;;;11.43;4.67;;;12.40;99.90;;;;;;1914372;73;21156;-74
2022/10/30 02:17:27;;;;;;;9.28;4.70;;;12.40;99.90;;;;;;1904868;74;21180;-74
2022/10/30 02:19:54;;;;;;;12.78;4.50;;;12.40;99.90;;;;;;1914735;75;21082;-74
2022/10/30 02:22:21;;;;;;;21.65;4.92;;;12.40;99.90;;;;;;1913664;73;21490;-74
2022/10/30 02:24:49;;;;;;;12.65;4.75;;;12.40;99.90;;;;;;1910629;73;21149;-74
2022/10/30 02:27:16;;;;;;;15.63;4.85;;;12.40;99.90;;;;;;1915594;73;21518;-75
2022/10/30 02:29:43;;;;;;;16.15;5.22;;;12.40;99.90;;;;;;1914180;73;21168;-75
2022/10/30 02:32:10;;;;;;;16.40;4.92;;;12.30;99.90;;;;;;1913463;73;21533;-75
2022/10/30 02:34:38;;;;;;;14.60;5.20;;;12.20;99.90;;;;;;1914636;73;21266;-74
2022/10/30 02:37:05;;;;;;;14.78;5.65;;;12.20;99.90;;;;;;1913212;74;21136;-74
2022/10/30 02:39:32;;;;;;;20.17;6.28;;;12.10;99.90;;;;;;1903118;73;21148;-74
2022/10/30 02:42:01;;;;;;;13.83;5.10;;;12.00;99.90;;;;;;1915271;73;21136;-74
2022/10/30 02:44:28;;;;;;;13.50;4.83;;;12.10;99.90;;;;;;1908493;74;21212;-74
2022/10/30 02:46:55;;;;;;;10.15;4.75;;;12.10;99.90;;;;;;1908025;74;21079;-74
2022/10/30 02:49:23;;;;;;;10.00;4.70;;;12.10;99.90;;;;;;1913892;73;21083;-75
2022/10/30 02:51:50;;;;;;;13.55;5.05;;;12.10;99.90;;;;;;1915468;74;21220;-74
2022/10/30 02:54:17;;;;;;;10.88;4.87;;;12.20;99.90;;;;;;1906484;73;21275;-75
2022/10/30 02:56:46;;;;;;;20.02;5.12;;;12.30;99.90;;;;;;1913277;74;21047;-75
2022/10/30 02:59:13;;;;;;;13.18;4.67;;;12.40;99.90;;;;;;1919309;73;21077;-74
2022/10/30 03:01:41;;;;;;;10.25;4.35;;;12.40;99.90;;;;;;1912684;74;21459;-75
2022/10/30 03:04:08;;;;;;;13.62;4.15;;;12.40;99.90;;;;;;1911434;74;21125;-75
2022/10/30 03:06:35;;;;;;;8.50;4.85;;;12.40;99.90;;;;;;1893089;74;21533;-75
2022/10/30 03:09:03;;;;;;;12.68;4.50;;;12.40;99.90;;;;;;1913904;74;21159;-75
2022/10/30 03:11:30;;;;;;;13.30;4.17;;;12.20;99.90;;;;;;1905987;73;21202;-74
2022/10/30 03:13:57;;;;;;;12.85;4.92;;;12.30;99.90;;;;;;1912833;73;21086;-74
2022/10/30 03:16:28;;;;;;;8.83;4.10;;;12.30;99.90;;;;;;1918109;73;21078;-74
2022/10/30 03:18:55;;;;;;;11.57;4.92;;;12.30;99.90;;;;;;1913647;74;21156;-75
2022/10/30 03:21:24;;;;;;;9.25;4.42;;;12.30;99.90;;;;;;1915806;74;21211;-75
2022/10/30 03:23:52;;;;;;;11.55;4.62;;;12.20;99.90;;;;;;1908866;74;21086;-75
2022/10/30 03:26:19;;;;;;;14.40;4.90;;;12.20;99.90;;;;;;1911486;74;21159;-75
2022/10/30 03:28:46;;;;;;;8.95;4.53;;;12.20;99.90;;;;;;1911609;73;21074;-74
2022/10/30 03:31:15;;;;;;;11.45;4.40;;;12.10;99.90;;;;;;1908834;74;21074;-74
2022/10/30 03:33:43;;;;;;;7.42;4.47;;;12.20;99.90;;;;;;1913860;74;21517;-74
2022/10/30 03:36:11;;;;;;;13.98;4.30;;;12.10;99.90;;;;;;1915542;74;21082;-75
2022/10/30 03:38:38;;;;;;;8.75;4.08;;;12.10;99.90;;;;;;1907405;74;21077;-74
2022/10/30 03:41:06;;;;;;;13.05;4.42;;;12.00;99.90;;;;;;1911622;73;21069;-75
2022/10/30 03:43:33;;;;;;;10.18;4.20;;;12.10;99.90;;;;;;1906007;74;21494;-75
2022/10/30 03:46:00;;;;;;;8.23;3.87;;;12.10;99.90;;;;;;1914671;73;21211;-74
2022/10/30 03:48:28;;;;;;;13.43;4.60;;;12.10;99.90;;;;;;1915785;73;21506;-74
2022/10/30 03:50:56;;;;;;;10.95;4.12;;;12.10;99.90;;;;;;1907851;74;21148;-74
2022/10/30 03:53:25;;;;;;;13.72;4.42;;;12.00;99.90;;;;;;1913153;73;21090;-74
2022/10/30 03:55:53;;;;;;;11.15;4.08;;;12.00;99.90;;;;;;1910182;74;21079;-74
2022/10/30 03:58:20;;;;;;;11.05;3.75;;;11.90;99.90;;;;;;1913425;74;21206;-73
2022/10/30 04:00:47;;;;;;;11.85;4.33;;;11.90;99.90;;;;;;1912654;74;21091;-74
2022/10/30 04:03:14;;;;;;;12.07;5.08;;;11.90;99.90;;;;;;1915140;73;21274;-74
2022/10/30 04:05:42;;;;;;;14.23;4.20;;;11.80;99.90;;;;;;1913385;74;21488;-74
2022/10/30 04:08:11;;;;;;;15.40;4.75;;;11.80;99.90;;;;;;1916514;74;21079;-74
2022/10/30 04:10:43;;;;;;;9.07;4.30;;;11.80;99.90;;;;;;1914699;73;21082;-74
2022/10/30 04:13:12;;;;;;;7.33;3.80;;;11.80;99.90;;;;;;1909623;74;21081;-74
2022/10/30 04:15:39;;;;;;;13.30;4.37;;;11.70;99.90;;;;;;1909428;74;21416;-74
2022/10/30 04:18:06;;;;;;;12.85;4.75;;;11.70;99.90;;;;;;1914423;73;21156;-74
2022/10/30 04:20:34;;;;;;;18.10;4.35;;;11.60;99.90;;;;;;1910749;73;21082;-74
2022/10/30 04:23:03;;;;;;;13.83;4.30;;;11.60;99.90;;;;;;1914768;73;21074;-73
2022/10/30 04:25:31;;;;;;;9.98;4.33;;;11.60;99.90;;;;;;1910220;74;21458;-75
2022/10/30 04:27:58;;;;;;;10.20;3.80;;;11.50;99.90;;;;;;1905765;73;21542;-74
2022/10/30 04:30:33;;;;;;;9.28;4.42;;;11.50;99.90;;;;;;1910308;73;21167;-74
2022/10/30 04:32:55;;;;;;;8.00;4.30;;;11.40;99.90;;;;;;1910688;74;21087;-74
2022/10/30 04:35:26;;;;;;;14.58;4.90;;;11.50;99.90;;;;;;1912220;74;21086;-74
2022/10/30 04:37:54;;;;;;;14.47;5.37;;;11.40;99.90;;;;;;1914899;73;21548;-74
2022/10/30 04:40:23;;;;;;;12.50;4.35;;;11.50;99.90;;;;;;1907631;73;21085;-74
2022/10/30 04:42:50;;;;;;;15.20;4.50;;;11.40;99.90;;;;;;1914269;74;21482;-74
2022/10/30 04:45:18;;;;;;;7.42;4.00;;;11.40;99.90;;;;;;1909629;74;21144;-74
2022/10/30 04:47:45;;;;;;;16.95;4.33;;;11.30;99.90;;;;;;1913224;74;21160;-73
2022/10/30 04:50:12;;;;;;;10.05;3.77;;;11.30;99.90;;;;;;1914641;75;21221;-74
2022/10/30 04:52:40;;;;;;;12.25;4.60;;;11.30;99.90;;;;;;1912311;74;21082;-74
2022/10/30 04:55:08;;;;;;;19.62;4.83;;;11.30;99.90;;;;;;1911993;74;21055;-74
2022/10/30 04:57:36;;;;;;;7.30;4.17;;;11.20;99.90;;;;;;1913915;73;21536;-74
2022/10/30 05:00:07;;;;;;;11.33;4.15;;;11.20;99.90;;;;;;1911704;74;21474;-74
2022/10/30 05:02:37;;;;;;;7.75;3.50;;;11.20;99.90;;;;;;1914629;75;21152;-74
2022/10/30 05:05:05;;;;;;;11.50;4.37;;;11.20;99.90;;;;;;1913149;74;21153;-74
2022/10/30 05:07:32;;;;;;;16.32;4.90;;;11.20;99.90;;;;;;1910831;73;21175;-74
2022/10/30 05:09:59;;;;;;;13.38;4.33;;;11.10;99.90;;;;;;1907767;74;21140;-74
2022/10/30 05:12:27;;;;;;;9.00;4.03;;;11.10;99.90;;;;;;1909346;74;21090;-74
2022/10/30 05:14:55;;;;;;;10.98;4.47;;;11.10;99.90;;;;;;1913408;73;21082;-74
2022/10/30 05:17:22;;;;;;;12.18;4.10;;;11.10;99.90;;;;;;1914672;74;21591;-74
2022/10/30 05:19:50;;;;;;;13.58;4.53;;;11.10;99.90;;;;;;1918506;74;21153;-74
2022/10/30 05:22:17;;;;;;;13.98;4.28;;;11.10;99.90;;;;;;1914424;74;21540;-73
2022/10/30 05:24:44;;;;;;;11.83;4.47;;;11.00;99.90;;;;;;1911326;74;21217;-73
2022/10/30 05:27:11;;;;;;;10.93;3.67;;;11.00;99.90;;;;;;1920335;73;21502;-73
2022/10/30 05:29:39;;;;;;;12.10;4.67;;;11.00;99.90;;;;;;1912854;73;21125;-73
2022/10/30 05:32:06;;;;;;;13.10;4.10;;;10.90;99.90;;;;;;1915949;73;21144;-75
2022/10/30 05:34:33;;;;;;;19.62;4.22;;;10.90;99.90;;;;;;1913369;74;21169;-74
2022/10/30 05:37:01;;;;;;;7.75;3.70;;;10.90;99.90;;;;;;1915231;74;21078;-74
2022/10/30 05:39:28;;;;;;;12.45;4.17;;;10.90;99.90;;;;;;1909521;74;21163;-74
2022/10/30 05:41:55;;;;;;;11.90;4.80;;;10.90;99.90;;;;;;1911660;74;21140;-74
2022/10/30 05:44:23;;;;;;;11.88;4.08;;;10.90;99.90;;;;;;1909353;74;21181;-75
2022/10/30 05:46:50;;;;;;;14.05;4.05;;;10.90;99.90;;;;;;1914675;73;21047;-74
2022/10/30 05:49:17;;;;;;;14.75;4.75;;;10.90;99.90;;;;;;1915514;73;21167;-75
2022/10/30 05:51:45;;;;;;;8.15;3.85;;;10.90;99.90;;;;;;1909656;74;21258;-75
2022/10/30 05:54:12;;;;;;;11.35;3.90;;;10.90;99.90;;;;;;1913427;74;21086;-76
2022/10/30 05:56:39;;;;;;;6.97;3.72;;;10.80;99.90;;;;;;1916417;73;21197;-75
2022/10/30 05:59:07;;;;;;;8.65;3.42;;;10.80;99.90;;;;;;1909305;74;21254;-75
2022/10/30 06:01:34;;;;;;;11.38;3.85;;;10.60;99.90;;;;;;1907841;74;21144;-75
2022/10/30 06:04:01;;;;;;;10.93;4.03;;;10.60;99.90;;;;;;1911459;73;21144;-76
2022/10/30 06:06:29;;;;;;;6.70;3.45;;;10.70;99.90;;;;;;1915957;74;21213;-75
2022/10/30 06:08:56;;;;;;;9.43;3.90;;;10.70;99.90;;;;;;1913431;73;21055;-75
2022/10/30 06:11:23;;;;;;;8.10;3.70;;;10.70;99.90;;;;;;1907715;74;21078;-75
2022/10/30 06:13:51;;;;;;;11.97;3.95;;;10.70;99.90;;;;;;1915932;73;21663;-75
2022/10/30 06:16:18;;;;;;;17.10;4.90;;;10.70;99.90;;;;;;1909018;74;21199;-75
2022/10/30 06:18:45;;;;;;;13.95;4.03;;;10.70;99.90;;;;;;1912252;73;21512;-75
2022/10/30 06:21:13;;;;;;;9.03;3.75;;;10.70;99.90;;;;;;1893082;74;21035;-74
2022/10/30 06:23:40;;;;;;;11.20;4.53;;;10.70;99.90;;;;;;1912255;74;21470;-76
2022/10/30 06:26:07;;;;;;;10.23;4.72;;;10.60;99.90;;;;;;1912959;73;21148;-75
2022/10/30 06:28:34;;;;;;;12.60;4.33;;;10.70;99.90;;;;;;1915089;75;21074;-75
2022/10/30 06:31:02;;;;;;;12.78;3.98;;;10.80;99.90;;;;;;1911092;73;21166;-75
2022/10/30 06:33:29;;;;;;;9.33;4.03;;;10.70;99.90;;;;;;1911041;74;21104;-75
2022/10/30 06:35:57;;;;;;;11.70;3.92;;;10.90;99.90;;;;;;1913266;73;21481;-75
2022/10/30 06:38:24;;;;;;;14.58;3.70;;;10.80;99.90;;;;;;1916657;74;21078;-75
2022/10/30 06:40:51;;;;;;;8.83;3.77;;;10.80;99.90;;;;;;1912904;73;21051;-75
2022/10/30 06:43:19;;;;;;;8.83;3.70;;;10.80;99.90;;;;;;1910527;74;21244;-75
2022/10/30 06:45:47;;;;;;;12.10;4.33;;;10.90;99.90;;;;;;1913896;74;21086;-74
2022/10/30 06:48:14;;;;;;;9.55;3.83;;;11.00;99.90;;;;;;1920231;73;21074;-75
2022/10/30 06:50:41;;;;;;;7.72;3.60;;;10.80;99.90;;;;;;1909993;74;21074;-75
2022/10/30 06:53:09;;;;;;;11.65;4.40;;;10.90;99.90;;;;;;1916046;74;21117;-75
2022/10/30 06:55:36;;;;;;;11.85;3.77;;;11.00;99.90;;;;;;1912708;74;21095;-75
2022/10/30 06:58:03;;;;;;;10.50;3.67;;;10.90;99.90;;;;;;1915825;74;21152;-75
2022/10/30 07:00:31;;;;;;;11.45;4.50;;;11.10;99.90;;;;;;1909848;74;21552;-75
2022/10/30 07:02:59;;;;;;;15.72;4.53;;;11.10;99.90;;;;;;1911352;74;21071;-74
2022/10/30 07:05:26;;;;;;;6.60;4.17;;;11.10;99.90;;;;;;1914831;74;21093;-76
2022/10/30 07:07:56;;;;;;;15.28;4.75;;;11.20;99.90;;;;;;1913616;74;21766;-76
2022/10/30 07:10:23;;;;;;;12.78;4.05;;;11.30;99.90;;;;;;1905943;74;21163;-77
2022/10/30 07:12:52;;;;;;;9.23;4.35;;;11.30;99.90;;;;;;1915400;73;21074;-75
2022/10/30 07:15:19;;;;;;;17.75;4.67;;;11.50;99.90;;;;;;1915886;74;21477;-76
2022/10/30 07:17:58;;;;;;;13.13;4.65;;;11.50;99.90;;;;;;1907831;74;21486;-75
2022/10/30 07:20:26;;;;;;;11.85;4.35;;;11.50;99.90;;;;;;1909122;74;21074;-76
2022/10/30 07:22:53;;;;;;;17.48;4.25;;;11.60;99.90;;;;;;1914588;74;21540;-76
2022/10/30 07:25:20;;;;;;;7.50;3.72;;;11.70;99.90;;;;;;1909612;74;21056;-75
2022/10/30 07:27:50;;;;;;;7.95;3.58;;;11.70;99.90;;;;;;1911826;74;21474;-75
2022/10/30 07:30:19;;;;;;;11.48;4.62;;;11.90;99.90;;;;;;1912301;74;21153;-76
2022/10/30 07:32:46;;;;;;;14.15;4.72;;;12.10;99.90;;;;;;1913441;74;21148;-76
2022/10/30 07:35:14;;;;;;;14.35;4.50;;;12.00;99.90;;;;;;1909459;75;21580;-76
2022/10/30 07:37:41;;;;;;;8.25;3.92;;;11.90;99.90;;;;;;1912975;73;21482;-76
2022/10/30 07:40:09;;;;;;;11.35;4.22;;;12.00;99.90;;;;;;1910842;74;21074;-75
2022/10/30 07:42:36;;;;;;;10.25;3.90;;;12.10;99.90;;;;;;1914406;73;21082;-75
2022/10/30 07:45:04;;;;;;;15.08;4.58;;;12.30;99.90;;;;;;1910610;74;21078;-75
2022/10/30 07:47:31;;;;;;;12.45;3.90;;;12.30;99.90;;;;;;1916016;74;21148;-74
2022/10/30 07:49:58;;;;;;;7.20;3.77;;;12.50;99.90;;;;;;1914232;75;21552;-74
2022/10/30 07:52:25;;;;;;;14.33;4.50;;;12.50;99.90;;;;;;1912074;74;21044;-75
2022/10/30 07:54:53;;;;;;;16.90;4.42;;;12.60;99.90;;;;;;1883926;74;21473;-75
2022/10/30 07:57:20;;;;;;;18.95;4.33;;;12.50;99.90;;;;;;1913161;74;21073;-74
2022/10/30 07:59:47;;;;;;;10.95;4.58;;;12.70;99.90;;;;;;1905808;74;21474;-74
2022/10/30 08:02:15;;;;;;;11.88;5.80;;;12.70;99.90;;;;;;1913410;73;21181;-75
2022/10/30 08:04:42;;;;;;;17.45;5.78;;;12.70;99.90;;;;;;1910756;74;21062;-74
2022/10/30 08:07:09;;;;;;;17.30;5.72;;;12.70;99.90;;;;;;1908804;74;21145;-75
2022/10/30 08:09:37;;;;;;;22.93;6.08;;;13.00;99.90;;;;;;1900587;74;21042;-75
2022/10/30 08:12:04;;;;;;;31.20;6.80;;;13.10;99.90;;;;;;1912131;73;21082;-75
2022/10/30 08:14:33;;;;;;;26.05;7.37;;;13.10;99.90;;;;;;1910966;74;22447;-75
2022/10/30 08:17:00;;;;;;;21.95;6.40;;;13.30;99.90;;;;;;1912681;73;21556;-74
2022/10/30 08:19:27;;;;;;;22.37;6.67;;;13.30;99.90;;;;;;1917381;74;21047;-74
2022/10/30 08:21:55;;;;;;;21.62;6.83;;;13.50;99.90;;;;;;1911347;74;21487;-74
2022/10/30 08:24:23;;;;;;;22.55;6.67;;;13.60;99.90;;;;;;1913353;74;21482;-74
2022/10/30 08:26:51;;;;;;;28.45;6.85;;;13.70;99.90;;;;;;1916913;74;21086;-74
2022/10/30 08:29:19;;;;;;;22.73;6.08;;;13.70;99.90;;;;;;1915212;73;21152;-73
2022/10/30 08:31:48;;;;;;;25.23;6.50;;;14.00;99.90;;;;;;1909090;73;21075;-74
2022/10/30 08:34:15;;;;;;;18.53;5.37;;;14.20;99.90;;;;;;1913934;74;21082;-74
2022/10/30 08:36:43;;;;;;;26.95;6.15;;;14.60;99.90;;;;;;1914176;74;21086;-74
2022/10/30 08:39:10;;;;;;;15.15;5.30;;;14.90;99.90;;;;;;1911107;74;21070;-74
2022/10/30 08:41:37;;;;;;;17.62;4.90;;;15.40;99.90;;;;;;1905973;74;21580;-74
2022/10/30 08:44:05;;;;;;;20.43;5.30;;;15.10;99.90;;;;;;1910514;74;21070;-74
2022/10/30 08:46:32;;;;;;;15.78;5.28;;;15.30;99.90;;;;;;1915024;73;21043;-74
2022/10/30 08:48:59;;;;;;;20.68;5.55;;;15.50;99.90;;;;;;1905353;74;21159;-73
2022/10/30 08:51:27;;;;;;;21.42;5.10;;;15.80;99.90;;;;;;1909325;74;21079;-74
2022/10/30 08:53:54;;;;;;;22.35;5.08;;;16.00;99.90;;;;;;1909142;74;21164;-74
2022/10/30 08:56:21;;;;;;;17.17;4.40;;;15.90;99.90;;;;;;1918105;74;21077;-74
2022/10/30 08:58:50;;;;;;;10.50;4.33;;;15.90;99.90;;;;;;1910731;73;21412;-74
2022/10/30 09:01:18;;;;;;;12.75;4.12;;;16.10;99.90;;;;;;1912782;74;21050;-75
2022/10/30 09:03:46;;;;;;;13.55;3.85;;;16.20;99.90;;;;;;1915652;74;21144;-73
2022/10/30 09:06:14;;;;;;;19.62;5.17;;;16.40;99.90;;;;;;1915391;73;21156;-74
2022/10/30 09:08:41;;;;;;;17.80;4.17;;;16.50;99.90;;;;;;1913300;73;21156;-74
2022/10/30 09:11:08;;;;;;;18.05;3.47;;;16.70;99.90;;;;;;1899983;74;21245;-73
2022/10/30 09:13:36;;;;;;;10.50;3.52;;;16.80;99.90;;;;;;1909804;74;21078;-74
2022/10/30 09:16:03;;;;;;;10.23;4.10;;;17.00;99.90;;;;;;1913602;74;21167;-74
2022/10/30 09:18:30;;;;;;;12.60;4.00;;;17.10;99.90;;;;;;1918253;73;21082;-75
2022/10/30 09:20:58;;;;;;;13.25;3.33;;;17.30;99.90;;;;;;1913212;74;21082;-74
2022/10/30 09:23:25;;;;;;;10.90;3.17;;;17.20;99.90;;;;;;1910844;74;21144;-75
2022/10/30 09:25:54;;;;;;;13.85;3.33;;;17.30;99.90;;;;;;1913380;73;21086;-74
2022/10/30 09:28:22;;;;;;;11.33;3.58;;;17.50;99.90;;;;;;1913075;74;21075;-75
2022/10/30 09:30:51;;;;;;;13.60;4.20;;;17.60;99.90;;;;;;1912508;74;21462;-75
2022/10/30 09:33:18;;;;;;;7.67;2.87;;;17.70;99.90;;;;;;1907188;74;21099;-74
2022/10/30 09:35:46;;;;;;;14.75;3.85;;;17.80;99.90;;;;;;1914811;73;21090;-73
2022/10/30 09:38:13;;;;;;;5.92;2.75;;;18.20;99.90;;;;;;1915415;75;21163;-74
2022/10/30 09:40:53;;;;;;;15.35;3.52;;;18.20;99.90;;;;;;1909428;74;21114;-73
2022/10/30 09:43:35;;;;;;;12.28;2.77;;;18.20;99.90;;;;;;1908395;74;21082;-73
2022/10/30 09:46:21;;;;;;;13.88;3.27;;;18.20;99.90;;;;;;1902813;73;21078;-75
2022/10/30 09:48:54;;;;;;;16.85;3.80;;;18.30;99.90;;;;;;1911626;74;21047;-74
2022/10/30 09:51:27;;;;;;;10.05;3.75;;;18.40;99.90;;;;;;1909490;74;21638;-75
2022/10/30 09:54:16;;;;;;;10.75;3.30;;;18.50;99.90;;;;;;1910867;74;21083;-74
2022/10/30 09:56:48;;;;;;;13.15;3.27;;;18.80;99.90;;;;;;1913864;74;21506;-74
2022/10/30 09:59:28;;;;;;;10.53;3.62;;;19.10;99.90;;;;;;1906272;74;21070;-74
2022/10/30 10:02:04;;;;;;;15.20;3.50;;;19.30;99.90;;;;;;1909932;74;21082;-73
2022/10/30 10:04:49;;;;;;;14.53;3.25;;;19.50;99.90;;;;;;1888187;74;21132;-73
2022/10/30 10:07:28;;;;;;;13.98;3.90;;;19.70;99.90;;;;;;1914038;74;21153;-74
2022/10/30 10:09:59;;;;;;;12.03;3.02;;;19.80;99.90;;;;;;1911412;73;21529;-73
2022/10/30 10:12:40;;;;;;;12.78;3.50;;;20.00;99.90;;;;;;1910692;74;21210;-73
2022/10/30 10:15:23;;;;;;;13.58;3.45;;;20.30;99.90;;;;;;1911156;74;21085;-74
2022/10/30 10:17:50;;;;;;;9.90;3.33;;;20.40;99.90;;;;;;1909775;74;21191;-75
2022/10/30 10:20:21;;;;;;;8.80;3.33;;;20.40;99.90;;;;;;1902748;74;21113;-75
2022/10/30 10:22:49;;;;;;;9.88;2.90;;;20.30;99.90;;;;;;1910478;73;21078;-75
2022/10/30 10:25:18;;;;;;;13.25;2.77;;;20.40;99.90;;;;;;1913045;74;21215;-73
2022/10/30 10:27:57;;;;;;;10.38;2.90;;;20.40;99.90;;;;;;1909357;73;22592;-74
2022/10/30 10:30:27;;;;;;;7.92;2.98;;;20.50;99.90;;;;;;1913963;74;21152;-74
2022/10/30 10:33:13;;;;;;;10.75;3.05;;;20.70;99.90;;;;;;1907016;73;21215;-75
2022/10/30 10:36:00;;;;;;;10.95;2.80;;;20.90;99.90;;;;;;1908879;74;21083;-74
2022/10/30 10:38:47;;;;;;;7.75;2.65;;;20.90;99.90;;;;;;1896007;74;21167;-74
2022/10/30 10:41:20;;;;;;;5.95;2.55;;;21.20;99.90;;;;;;1911217;74;21078;-74
2022/10/30 10:44:02;;;;;;;14.45;3.27;;;21.10;99.90;;;;;;1913255;74;21470;-74
2022/10/30 10:47:07;;;;;;;9.98;2.62;;;21.30;99.90;;;;;;1914483;74;21074;-74
2022/10/30 10:49:50;;;;;;;13.00;3.00;;;21.50;99.90;;;;;;1912511;74;21078;-74
2022/10/30 10:52:26;;;;;;;9.83;2.65;;;21.30;99.90;;;;;;1909550;74;21145;-73
2022/10/30 10:54:58;;;;;;;6.60;2.22;;;21.70;99.90;;;;;;1907972;74;21075;-74
2022/10/30 10:57:28;;;;;;;8.40;2.70;;;21.70;99.90;;;;;;1897458;73;21077;-74
2022/10/30 10:59:58;;;;;;;11.22;2.40;;;22.00;99.90;;;;;;1910497;74;21221;-74
2022/10/30 11:02:33;;;;;;;;;;;22.50;99.90;;;;;;1916340;74;21140;-74
2022/10/30 11:05:03;;;;;;;8.13;2.77;;;22.50;99.90;;;;;;1908956;73;20126;-74
2022/10/30 11:07:36;;;;;;;11.28;2.92;;;22.90;99.90;;;;;;1893152;74;21136;-74
2022/10/30 11:10:06;;;;;;;13.45;2.72;;;22.50;99.90;;;;;;1914974;73;21074;-74
2022/10/30 11:12:36;;;;;;;11.48;3.08;;;22.50;99.90;;;;;;1910780;74;21065;-74
2022/10/30 11:15:21;;;;;;;7.60;2.55;;;22.70;99.90;;;;;;1914851;73;21047;-74
2022/10/30 11:18:06;;;;;;;10.80;3.37;;;23.20;99.90;;;;;;1909584;73;21075;-74
2022/10/30 11:20:56;;;;;;;15.30;3.30;;;23.30;99.90;;;;;;1903349;74;21105;-74
2022/10/30 11:23:39;;;;;;;17.57;3.00;;;23.70;99.90;;;;;;1911047;74;21097;-73
2022/10/30 11:26:25;;;;;;;7.62;3.12;;;23.80;99.90;;;;;;1912592;73;21222;-73
2022/10/30 11:29:01;;;;;;;13.65;2.58;;;23.30;99.90;;;;;;1895662;73;21090;-73
2022/10/30 11:31:33;;;;;;;8.45;2.12;;;23.40;99.90;;;;;;1916645;74;21274;-73
2022/10/30 11:34:24;;;;;;;13.98;2.40;;;23.50;99.90;;;;;;1915812;74;21130;-73
2022/10/30 11:36:53;;;;;;;11.50;2.50;;;23.60;99.90;;;;;;1915020;73;21475;-73
2022/10/30 11:39:28;;;;;;;4.97;2.22;;;23.40;99.90;;;;;;1911566;74;21090;-73
2022/10/30 11:42:17;;;;;;;5.95;2.20;;;24.30;99.90;;;;;;1910803;74;21475;-74
2022/10/30 11:44:52;;;;;;;10.28;2.60;;;24.60;99.90;;;;;;1910487;74;21078;-74
2022/10/30 11:47:22;;;;;;;7.75;3.05;;;24.30;99.90;;;;;;1911478;74;21136;-74
2022/10/30 11:49:56;;;;;;;14.57;3.20;;;24.20;99.90;;;;;;1908063;74;21090;-74
2022/10/30 11:52:24;;;;;;;13.08;3.05;;;24.50;99.90;;;;;;1907121;73;21083;-74
2022/10/30 11:54:57;;;;;;;9.80;2.45;;;24.00;99.90;;;;;;1883424;75;21607;-73
2022/10/30 11:57:41;;;;;;;16.42;3.17;;;24.00;99.90;;;;;;1904889;74;21165;-73
2022/10/30 12:00:12;;;;;;;7.97;2.52;;;23.90;99.90;;;;;;1914508;74;21082;-74
2022/10/30 12:02:42;;;;;;;9.53;2.55;;;23.60;99.90;;;;;;1913707;74;21273;-73
2022/10/30 12:05:31;;;;;;;9.00;2.70;;;24.20;99.90;;;;;;1904223;73;21149;-73
2022/10/30 12:08:10;;;;;;;12.40;2.65;;;24.00;99.90;;;;;;1901381;73;21571;-74
2022/10/30 12:11:01;;;;;;;7.53;2.50;;;24.10;99.90;;;;;;1915290;73;21047;-73
2022/10/30 12:13:30;;;;;;;8.95;2.33;;;24.50;99.90;;;;;;1913993;73;21146;-73
2022/10/30 12:16:05;;;;;;;9.28;2.10;;;24.70;99.90;;;;;;1916355;74;21212;-73
2022/10/30 12:18:33;;;;;;;9.78;2.85;;;24.30;99.90;;;;;;1902019;74;21078;-73
2022/10/30 12:21:00;;;;;;;10.78;2.80;;;24.40;99.90;;;;;;1904493;74;21473;-73
2022/10/30 12:23:28;;;;;;;6.47;2.30;;;24.30;99.90;;;;;;1916280;74;21048;-72
2022/10/30 12:26:00;;;;;;;8.68;2.72;;;24.40;99.90;;;;;;1915399;74;21075;-73
2022/10/30 12:28:29;;;;;;;7.85;2.42;;;24.40;99.90;;;;;;1909643;73;21043;-74
2022/10/30 12:31:12;;;;;;;5.62;2.60;;;24.60;99.90;;;;;;1912844;74;21052;-73
2022/10/30 12:33:49;;;;;;;8.20;3.00;;;24.90;99.90;;;;;;1911159;75;21082;-74
2022/10/30 12:36:22;;;;;;;12.13;3.10;;;25.00;99.90;;;;;;1915770;74;21094;-74
2022/10/30 12:39:01;;;;;;;7.47;2.65;;;24.80;99.90;;;;;;1911879;73;21105;-73
2022/10/30 12:41:47;;;;;;;8.20;2.30;;;24.40;99.90;;;;;;1904796;75;21077;-73
2022/10/30 12:44:17;;;;;;;7.00;2.33;;;24.70;99.90;;;;;;1905434;74;21160;-73
2022/10/30 12:46:57;;;;;;;;;;;25.30;99.90;;;;;;1905942;74;21531;-73
2022/10/30 12:49:30;;;;;;;11.63;3.10;;;25.40;99.90;;;;;;1910922;74;20122;-73
2022/10/30 12:52:06;;;;;;;11.55;2.85;;;25.30;99.90;;;;;;1915331;74;21152;-73
2022/10/30 12:54:54;;;;;;;5.47;2.00;;;25.00;99.90;;;;;;1912411;74;21160;-73
2022/10/30 12:57:27;;;;;;;6.35;2.12;;;24.80;99.90;;;;;;1904639;74;21553;-73
2022/10/30 13:00:15;;;;;;;12.75;2.33;;;24.80;99.90;;;;;;1908812;74;21086;-73